Elizabeth — 9V8794 — position and weather

sailwx.info

Track history (hours):
 
Tides and Currents Weather Stations Pressure Air Temp Water Temp Dewpoint Dewpoint Depression Visibility Wind Speed Wind Dir Waves Ship Positions

Elizabeth

Last reported at 2016-Aug-27 18:05 UTC. Time now 2016-Aug-29 05:30 UTC.
Position N 46°10' W 127°33'.

Length 190 m; draft 13.1 m.

Type: Cargo ship. MMSI: 566073000.

Date/timePositionNaut miles runAvg speedWind from/ knotsBaromVisibWave heightAir tempDewpointWater temp
2016-Aug-27 18:05N 46°10' W 127°33'3312.5
2016-Aug-27 15:29N 46°11' W 126°46'1211.9
2016-Aug-27 14:30N 46°11' W 126°29'1111.7
2016-Aug-27 13:33N 46°11' W 126°13'1212.2
2016-Aug-27 12:32N 46°10' W 125°55'1212.5
2016-Aug-27 11:33N 46°11' W 125°38'1312.4
2016-Aug-27 10:33N 46°11' W 125°19'1312.7
2016-Aug-27 09:33N 46°11' W 125°01'1313.0
2016-Aug-27 08:33N 46°12' W 124°42'1312.8
2016-Aug-27 07:33N 46°11' W 124°24'1110.7
2016-Aug-27 06:34N 46°13' W 124°09'18 8.8
2016-Aug-27 04:33N 46°14' W 123°43'9 9.3
2016-Aug-27 03:33N 46°16' W 123°30'8 8.4
2016-Aug-27 02:33N 46°09' W 123°24'10 9.9
2016-Aug-27 01:33N 46°11' W 123°10'1010.5
2016-Aug-27 00:34N 46°06' W 122°57'5 5.1
2016-Aug-26 23:32N 46°02' W 122°53'0 0.0
2016-Aug-26 22:32N 46°02' W 122°53'0 0.0
2016-Aug-26 21:32N 46°02' W 122°53'0 0.0
2016-Aug-26 20:32N 46°02' W 122°53'0 0.0
2016-Aug-26 19:29N 46°02' W 122°53'0 0.1
2016-Aug-26 18:32N 46°02' W 122°53'0 0.0
2016-Aug-26 17:32N 46°02' W 122°53'0 0.0
2016-Aug-26 16:32N 46°02' W 122°53'0 0.0
2016-Aug-26 15:32N 46°02' W 122°53'0 0.0
2016-Aug-26 14:32N 46°02' W 122°53'0 0.0
2016-Aug-26 13:32N 46°02' W 122°53'0 0.0
2016-Aug-26 12:32N 46°02' W 122°53'0 0.0
2016-Aug-26 11:32N 46°02' W 122°53'0 0.0
2016-Aug-26 10:32N 46°02' W 122°53'0 0.0
2016-Aug-26 09:32N 46°02' W 122°53'0 0.0
2016-Aug-26 08:32N 46°02' W 122°53'0 0.0
2016-Aug-26 07:32N 46°02' W 122°53'0 0.0
2016-Aug-26 06:32N 46°02' W 122°53'0 0.0
2016-Aug-26 04:32N 46°02' W 122°53'0 0.0
2016-Aug-26 03:29N 46°02' W 122°53'0 0.0
2016-Aug-26 02:29N 46°02' W 122°53'0 0.0
2016-Aug-26 01:29N 46°02' W 122°53'0 0.0
2016-Aug-26 00:32N 46°02' W 122°53'0 0.0
2016-Aug-25 23:32N 46°02' W 122°53'0 0.1
2016-Aug-25 22:32N 46°02' W 122°53'0 0.0
2016-Aug-25 21:32N 46°02' W 122°53'0 0.0
2016-Aug-25 20:32N 46°02' W 122°53'0 0.0
2016-Aug-25 19:32N 46°02' W 122°53'0 0.0
2016-Aug-25 18:29N 46°02' W 122°53'0 0.1
2016-Aug-25 17:32N 46°02' W 122°53'0 0.0
2016-Aug-25 16:29N 46°02' W 122°53'0 0.0
2016-Aug-25 15:32N 46°02' W 122°53'0 0.0
2016-Aug-25 14:29N 46°02' W 122°53'0 0.1
2016-Aug-25 13:33N 46°02' W 122°53'1 0.7
2016-Aug-25 12:34N 46°02' W 122°53'1 0.5
2016-Aug-25 11:27N 46°02' W 122°53'0 0.0
2016-Aug-25 10:33N 46°02' W 122°53'0 0.0
2016-Aug-25 09:33N 46°02' W 122°53'0 0.0
2016-Aug-25 08:33N 46°02' W 122°53'0 0.0
2016-Aug-25 07:33N 46°02' W 122°53'0 0.0
2016-Aug-25 06:27N 46°02' W 122°53'0 0.0
2016-Aug-25 04:33N 46°02' W 122°53'0 0.0
2016-Aug-25 03:34N 46°02' W 122°53'2 1.6
2016-Aug-25 02:34N 46°00' W 122°51'2 1.6
2016-Aug-25 01:34N 45°59' W 122°50'0 0.0
2016-Aug-25 00:32N 45°59' W 122°50'0 0.0
2016-Aug-24 23:32N 45°59' W 122°50'0 0.0
2016-Aug-24 22:32N 45°59' W 122°50'0 0.0
2016-Aug-24 21:32N 45°59' W 122°50'0 0.0
2016-Aug-24 20:26N 45°59' W 122°50'0 0.0
2016-Aug-24 19:29N 45°59' W 122°50'0 0.0
2016-Aug-24 18:32N 45°59' W 122°50'0 0.0
2016-Aug-24 17:32N 45°59' W 122°50'0 0.0
2016-Aug-24 16:32N 45°59' W 122°50'0 0.0
2016-Aug-24 15:32N 45°59' W 122°50'0 0.0
2016-Aug-24 14:32N 45°59' W 122°50'0 0.0
2016-Aug-24 13:32N 45°59' W 122°50'0 0.0
2016-Aug-24 12:29N 45°59' W 122°50'0 0.0
2016-Aug-24 11:32N 45°59' W 122°50'0 0.0
2016-Aug-24 10:32N 45°59' W 122°50'0 0.0
2016-Aug-24 09:32N 45°59' W 122°50'0 0.0
2016-Aug-24 08:32N 45°59' W 122°50'0 0.0
2016-Aug-24 07:32N 45°59' W 122°50'0 0.0
2016-Aug-24 06:26N 45°59' W 122°50'0 0.0
2016-Aug-24 04:32N 45°59' W 122°50'0 0.0
2016-Aug-24 03:29N 45°59' W 122°50'0 0.0
2016-Aug-24 02:32N 45°59' W 122°50'0 0.0
2016-Aug-24 01:32N 45°59' W 122°50'0 0.0
2016-Aug-24 00:32N 45°59' W 122°50'0 0.0
2016-Aug-23 23:26N 45°59' W 122°50'0 0.0
2016-Aug-23 22:29N 45°59' W 122°50'0 0.0
2016-Aug-23 21:32N 45°59' W 122°50'0 0.0
2016-Aug-23 20:32N 45°59' W 122°50'0 0.0
2016-Aug-23 19:32N 45°59' W 122°50'0 0.0
2016-Aug-23 18:32N 45°59' W 122°50'0 0.0
2016-Aug-23 17:32N 45°59' W 122°50'0 0.0
2016-Aug-23 16:32N 45°59' W 122°50'0 0.0
2016-Aug-23 15:29N 45°59' W 122°50'0 0.0
2016-Aug-23 14:32N 45°59' W 122°50'0 0.0
2016-Aug-23 13:31N 45°59' W 122°50'0 0.0
2016-Aug-23 12:31N 45°59' W 122°50'0 0.0
2016-Aug-23 11:31N 45°59' W 122°50'0 0.0
2016-Aug-23 10:31N 45°59' W 122°50'0 0.0
2016-Aug-23 09:31N 45°59' W 122°50'0 0.0
2016-Aug-23 08:31N 45°59' W 122°50'0 0.0
2016-Aug-23 07:31N 45°59' W 122°50'0 0.0
2016-Aug-23 06:31N 45°59' W 122°50'0 0.0
2016-Aug-23 05:31N 45°59' W 122°50'0 0.0
2016-Aug-23 04:31N 45°59' W 122°50'0 0.0
2016-Aug-23 03:31N 45°59' W 122°50'0 0.0
2016-Aug-23 02:33N 45°59' W 122°50'0 0.0
2016-Aug-23 01:28N 45°59' W 122°50'0 0.0
2016-Aug-23 00:31N 45°59' W 122°50'0 0.0
2016-Aug-22 23:31N 45°59' W 122°50'0 0.0
2016-Aug-22 22:31N 45°59' W 122°50'0 0.0
2016-Aug-22 21:31N 45°59' W 122°50'0 0.0
2016-Aug-22 20:31N 45°59' W 122°50'0 0.0
2016-Aug-22 19:28N 45°59' W 122°50'0 0.0
2016-Aug-22 18:31N 45°59' W 122°50'0 0.0
2016-Aug-22 17:28N 45°59' W 122°50'0 0.0
2016-Aug-22 16:31N 45°59' W 122°50'0 0.0
2016-Aug-22 15:31N 45°59' W 122°50'0 0.0
2016-Aug-22 14:31N 45°59' W 122°50'0 0.0
2016-Aug-22 13:31N 45°59' W 122°50'0 0.0
2016-Aug-22 12:31N 45°59' W 122°50'0 0.0
2016-Aug-22 11:31N 45°59' W 122°50'0 0.0
2016-Aug-22 10:31N 45°59' W 122°50'0 0.0
2016-Aug-22 09:31N 45°59' W 122°50'0 0.0
2016-Aug-22 08:31N 45°59' W 122°50'0 0.0
2016-Aug-22 07:31N 45°59' W 122°50'0 0.0
2016-Aug-22 06:25N 45°59' W 122°50'0 0.0
2016-Aug-22 05:31N 45°59' W 122°50'0 0.0
2016-Aug-22 04:31N 45°59' W 122°50'0 0.0
2016-Aug-22 03:31N 45°59' W 122°50'0 0.0
2016-Aug-22 02:31N 45°59' W 122°50'0 0.0
2016-Aug-22 01:31N 45°59' W 122°50'0 0.0
2016-Aug-22 00:31N 45°59' W 122°50'0 0.0
2016-Aug-21 23:31N 45°59' W 122°50'0 0.0
2016-Aug-21 22:33N 45°59' W 122°50'2 1.8
2016-Aug-21 21:27N 46°01' W 122°51'0 0.0
2016-Aug-21 20:33N 46°01' W 122°51'0 0.0
2016-Aug-21 19:30N 46°01' W 122°52'0 0.0
2016-Aug-21 18:33N 46°01' W 122°52'0 0.0
2016-Aug-21 17:30N 46°01' W 122°52'0 0.0
2016-Aug-21 16:33N 46°01' W 122°52'0 0.2
2016-Aug-21 15:33N 46°01' W 122°51'0 0.0
2016-Aug-21 14:33N 46°01' W 122°51'0 0.1
2016-Aug-21 13:33N 46°01' W 122°51'0 0.0
2016-Aug-21 12:33N 46°01' W 122°51'0 0.1
2016-Aug-21 11:30N 46°01' W 122°52'0 0.1
2016-Aug-21 10:33N 46°01' W 122°52'0 0.0
2016-Aug-21 09:33N 46°01' W 122°51'0 0.0
2016-Aug-21 08:33N 46°01' W 122°51'0 0.0
2016-Aug-21 07:30N 46°01' W 122°52'0 0.0
2016-Aug-21 06:33N 46°01' W 122°52'0 0.0
2016-Aug-21 05:30N 46°01' W 122°52'0 0.0
2016-Aug-21 04:30N 46°01' W 122°52'0 0.1
2016-Aug-21 03:33N 46°01' W 122°52'0 0.1
2016-Aug-21 02:33N 46°01' W 122°51'0 0.0
2016-Aug-21 01:33N 46°01' W 122°51'0 0.0
2016-Aug-21 00:30N 46°01' W 122°51'0 0.0
2016-Aug-20 23:33N 46°01' W 122°51'0 0.2
2016-Aug-20 22:33N 46°01' W 122°52'0 0.0
2016-Aug-20 21:33N 46°01' W 122°52'0 0.0
2016-Aug-20 20:33N 46°01' W 122°52'0 0.0
2016-Aug-20 19:33N 46°01' W 122°52'0 0.0
2016-Aug-20 18:27N 46°01' W 122°52'0 0.0
2016-Aug-20 17:30N 46°01' W 122°52'0 0.0
2016-Aug-20 16:30N 46°01' W 122°52'0 0.0
2016-Aug-20 15:33N 46°01' W 122°52'0 0.1
2016-Aug-20 14:33N 46°01' W 122°51'0 0.1
2016-Aug-20 13:33N 46°01' W 122°51'0 0.0
2016-Aug-20 12:30N 46°01' W 122°51'0 0.0
2016-Aug-20 11:33N 46°01' W 122°51'0 0.1
2016-Aug-20 10:33N 46°01' W 122°51'0 0.1
2016-Aug-20 09:30N 46°01' W 122°51'0 0.0
2016-Aug-20 08:33N 46°01' W 122°52'0 0.0
2016-Aug-20 07:33N 46°01' W 122°52'0 0.0
2016-Aug-20 06:33N 46°01' W 122°52'0 0.0
2016-Aug-20 05:33N 46°01' W 122°51'0 0.0
2016-Aug-20 04:30N 46°01' W 122°52'0 0.0
2016-Aug-20 03:33N 46°01' W 122°52'0 0.2
2016-Aug-20 02:33N 46°01' W 122°51'0 0.0
2016-Aug-20 01:33N 46°01' W 122°51'0 0.0
2016-Aug-20 00:33N 46°01' W 122°51'0 0.0
2016-Aug-19 23:33N 46°01' W 122°51'0 0.2
2016-Aug-19 22:33N 46°01' W 122°51'0 0.0
2016-Aug-19 21:33N 46°01' W 122°51'0 0.0
2016-Aug-19 20:33N 46°01' W 122°52'0 0.0
2016-Aug-19 19:33N 46°01' W 122°52'0 0.0
2016-Aug-19 18:33N 46°01' W 122°52'0 0.0
2016-Aug-19 17:33N 46°01' W 122°52'0 0.0
2016-Aug-19 16:33N 46°01' W 122°51'0 0.0
2016-Aug-19 15:33N 46°01' W 122°52'0 0.0
2016-Aug-19 14:33N 46°01' W 122°51'0 0.2
2016-Aug-19 13:33N 46°01' W 122°51'0 0.0
2016-Aug-19 12:30N 46°01' W 122°51'0 0.0
2016-Aug-19 11:33N 46°01' W 122°51'0 0.0
2016-Aug-19 10:33N 46°01' W 122°51'0 0.0
2016-Aug-19 09:33N 46°01' W 122°51'0 0.2
2016-Aug-19 08:33N 46°01' W 122°52'0 0.1
2016-Aug-19 07:33N 46°01' W 122°51'0 0.0
2016-Aug-19 06:33N 46°01' W 122°51'0 0.0
2016-Aug-19 05:33N 46°01' W 122°52'0 0.0
2016-Aug-19 04:33N 46°01' W 122°52'0 0.0
2016-Aug-19 03:33N 46°01' W 122°52'0 0.1
2016-Aug-19 02:33N 46°01' W 122°52'0 0.1
2016-Aug-19 01:33N 46°01' W 122°51'0 0.0
2016-Aug-19 00:33N 46°01' W 122°51'0 0.0
2016-Aug-18 23:33N 46°01' W 122°51'0 0.0
2016-Aug-18 22:33N 46°01' W 122°51'0 0.2
2016-Aug-18 21:30N 46°01' W 122°51'0 0.0
2016-Aug-18 20:33N 46°01' W 122°51'0 0.0
2016-Aug-18 19:33N 46°01' W 122°51'0 0.0
2016-Aug-18 18:33N 46°01' W 122°52'0 0.0
2016-Aug-18 17:24N 46°01' W 122°52'0 0.1
2016-Aug-18 16:33N 46°01' W 122°51'0 0.0
2016-Aug-18 15:27N 46°01' W 122°51'0 0.0
2016-Aug-18 14:33N 46°01' W 122°51'0 0.0
2016-Aug-18 13:33N 46°01' W 122°51'0 0.2
2016-Aug-18 12:33N 46°01' W 122°51'0 0.0
2016-Aug-18 11:33N 46°01' W 122°51'0 0.0
2016-Aug-18 10:33N 46°01' W 122°51'0 0.0
2016-Aug-18 09:30N 46°01' W 122°51'0 0.2
2016-Aug-18 08:33N 46°01' W 122°52'0 0.1
2016-Aug-18 07:33N 46°01' W 122°52'0 0.0
2016-Aug-18 06:33N 46°01' W 122°52'0 0.0
2016-Aug-18 05:33N 46°01' W 122°52'0 0.0
2016-Aug-18 04:33N 46°01' W 122°52'0 0.0
2016-Aug-18 03:30N 46°01' W 122°52'0 0.0
2016-Aug-18 02:33N 46°01' W 122°52'0 0.2
2016-Aug-18 01:33N 46°01' W 122°51'0 0.0
2016-Aug-18 00:33N 46°01' W 122°51'0 0.0
2016-Aug-17 23:33N 46°01' W 122°51'0 0.0
2016-Aug-17 22:33N 46°01' W 122°51'0 0.1
2016-Aug-17 21:33N 46°01' W 122°52'0 0.1
2016-Aug-17 20:30N 46°01' W 122°52'0 0.0
2016-Aug-17 19:33N 46°01' W 122°52'0 0.0
2016-Aug-17 18:33N 46°01' W 122°52'  
Track history (hours):
 
Tides and Currents Weather Stations Pressure Air Temp Water Temp Dewpoint Dewpoint Depression Visibility Wind Speed Wind Dir Waves Ship Positions

Elizabeth

Last reported at 2016-Aug-27 18:05 UTC. Time now 2016-Aug-29 05:30 UTC.
Position N 46°10' W 127°33'.

Length 190 m; draft 13.1 m.

Type: Cargo ship. MMSI: 566073000.

Date/timePositionNaut miles runAvg speedWind from/ knotsBaromVisibWave heightAir tempDewpointWater temp
2016-Aug-27 18:05N 46°10' W 127°33'3312.5
2016-Aug-27 15:29N 46°11' W 126°46'1211.9
2016-Aug-27 14:30N 46°11' W 126°29'1111.7
2016-Aug-27 13:33N 46°11' W 126°13'1212.2
2016-Aug-27 12:32N 46°10' W 125°55'1212.5
2016-Aug-27 11:33N 46°11' W 125°38'1312.4
2016-Aug-27 10:33N 46°11' W 125°19'1312.7
2016-Aug-27 09:33N 46°11' W 125°01'1313.0
2016-Aug-27 08:33N 46°12' W 124°42'1312.8
2016-Aug-27 07:33N 46°11' W 124°24'1110.7
2016-Aug-27 06:34N 46°13' W 124°09'18 8.8
2016-Aug-27 04:33N 46°14' W 123°43'9 9.3
2016-Aug-27 03:33N 46°16' W 123°30'8 8.4
2016-Aug-27 02:33N 46°09' W 123°24'10 9.9
2016-Aug-27 01:33N 46°11' W 123°10'1010.5
2016-Aug-27 00:34N 46°06' W 122°57'5 5.1
2016-Aug-26 23:32N 46°02' W 122°53'0 0.0
2016-Aug-26 22:32N 46°02' W 122°53'0 0.0
2016-Aug-26 21:32N 46°02' W 122°53'0 0.0
2016-Aug-26 20:32N 46°02' W 122°53'0 0.0
2016-Aug-26 19:29N 46°02' W 122°53'0 0.1
2016-Aug-26 18:32N 46°02' W 122°53'0 0.0
2016-Aug-26 17:32N 46°02' W 122°53'0 0.0
2016-Aug-26 16:32N 46°02' W 122°53'0 0.0
2016-Aug-26 15:32N 46°02' W 122°53'0 0.0
2016-Aug-26 14:32N 46°02' W 122°53'0 0.0
2016-Aug-26 13:32N 46°02' W 122°53'0 0.0
2016-Aug-26 12:32N 46°02' W 122°53'0 0.0
2016-Aug-26 11:32N 46°02' W 122°53'0 0.0
2016-Aug-26 10:32N 46°02' W 122°53'0 0.0
2016-Aug-26 09:32N 46°02' W 122°53'0 0.0
2016-Aug-26 08:32N 46°02' W 122°53'0 0.0
2016-Aug-26 07:32N 46°02' W 122°53'0 0.0
2016-Aug-26 06:32N 46°02' W 122°53'0 0.0
2016-Aug-26 04:32N 46°02' W 122°53'0 0.0
2016-Aug-26 03:29N 46°02' W 122°53'0 0.0
2016-Aug-26 02:29N 46°02' W 122°53'0 0.0
2016-Aug-26 01:29N 46°02' W 122°53'0 0.0
2016-Aug-26 00:32N 46°02' W 122°53'0 0.0
2016-Aug-25 23:32N 46°02' W 122°53'0 0.1
2016-Aug-25 22:32N 46°02' W 122°53'0 0.0
2016-Aug-25 21:32N 46°02' W 122°53'0 0.0
2016-Aug-25 20:32N 46°02' W 122°53'0 0.0
2016-Aug-25 19:32N 46°02' W 122°53'0 0.0
2016-Aug-25 18:29N 46°02' W 122°53'0 0.1
2016-Aug-25 17:32N 46°02' W 122°53'0 0.0
2016-Aug-25 16:29N 46°02' W 122°53'0 0.0
2016-Aug-25 15:32N 46°02' W 122°53'0 0.0
2016-Aug-25 14:29N 46°02' W 122°53'0 0.1
2016-Aug-25 13:33N 46°02' W 122°53'1 0.7
2016-Aug-25 12:34N 46°02' W 122°53'1 0.5
2016-Aug-25 11:27N 46°02' W 122°53'0 0.0
2016-Aug-25 10:33N 46°02' W 122°53'0 0.0
2016-Aug-25 09:33N 46°02' W 122°53'0 0.0
2016-Aug-25 08:33N 46°02' W 122°53'0 0.0
2016-Aug-25 07:33N 46°02' W 122°53'0 0.0
2016-Aug-25 06:27N 46°02' W 122°53'0 0.0
2016-Aug-25 04:33N 46°02' W 122°53'0 0.0
2016-Aug-25 03:34N 46°02' W 122°53'2 1.6
2016-Aug-25 02:34N 46°00' W 122°51'2 1.6
2016-Aug-25 01:34N 45°59' W 122°50'0 0.0
2016-Aug-25 00:32N 45°59' W 122°50'0 0.0
2016-Aug-24 23:32N 45°59' W 122°50'0 0.0
2016-Aug-24 22:32N 45°59' W 122°50'0 0.0
2016-Aug-24 21:32N 45°59' W 122°50'0 0.0
2016-Aug-24 20:26N 45°59' W 122°50'0 0.0
2016-Aug-24 19:29N 45°59' W 122°50'0 0.0
2016-Aug-24 18:32N 45°59' W 122°50'0 0.0
2016-Aug-24 17:32N 45°59' W 122°50'0 0.0
2016-Aug-24 16:32N 45°59' W 122°50'0 0.0
2016-Aug-24 15:32N 45°59' W 122°50'0 0.0
2016-Aug-24 14:32N 45°59' W 122°50'0 0.0
2016-Aug-24 13:32N 45°59' W 122°50'0 0.0
2016-Aug-24 12:29N 45°59' W 122°50'0 0.0
2016-Aug-24 11:32N 45°59' W 122°50'0 0.0
2016-Aug-24 10:32N 45°59' W 122°50'0 0.0
2016-Aug-24 09:32N 45°59' W 122°50'0 0.0
2016-Aug-24 08:32N 45°59' W 122°50'0 0.0
2016-Aug-24 07:32N 45°59' W 122°50'0 0.0
2016-Aug-24 06:26N 45°59' W 122°50'0 0.0
2016-Aug-24 04:32N 45°59' W 122°50'0 0.0
2016-Aug-24 03:29N 45°59' W 122°50'0 0.0
2016-Aug-24 02:32N 45°59' W 122°50'0 0.0
2016-Aug-24 01:32N 45°59' W 122°50'0 0.0
2016-Aug-24 00:32N 45°59' W 122°50'0 0.0
2016-Aug-23 23:26N 45°59' W 122°50'0 0.0
2016-Aug-23 22:29N 45°59' W 122°50'0 0.0
2016-Aug-23 21:32N 45°59' W 122°50'0 0.0
2016-Aug-23 20:32N 45°59' W 122°50'0 0.0
2016-Aug-23 19:32N 45°59' W 122°50'0 0.0
2016-Aug-23 18:32N 45°59' W 122°50'0 0.0
2016-Aug-23 17:32N 45°59' W 122°50'0 0.0
2016-Aug-23 16:32N 45°59' W 122°50'0 0.0
2016-Aug-23 15:29N 45°59' W 122°50'0 0.0
2016-Aug-23 14:32N 45°59' W 122°50'0 0.0
2016-Aug-23 13:31N 45°59' W 122°50'0 0.0
2016-Aug-23 12:31N 45°59' W 122°50'0 0.0
2016-Aug-23 11:31N 45°59' W 122°50'0 0.0
2016-Aug-23 10:31N 45°59' W 122°50'0 0.0
2016-Aug-23 09:31N 45°59' W 122°50'0 0.0
2016-Aug-23 08:31N 45°59' W 122°50'0 0.0
2016-Aug-23 07:31N 45°59' W 122°50'0 0.0
2016-Aug-23 06:31N 45°59' W 122°50'0 0.0
2016-Aug-23 05:31N 45°59' W 122°50'0 0.0
2016-Aug-23 04:31N 45°59' W 122°50'0 0.0
2016-Aug-23 03:31N 45°59' W 122°50'0 0.0
2016-Aug-23 02:33N 45°59' W 122°50'0 0.0
2016-Aug-23 01:28N 45°59' W 122°50'0 0.0
2016-Aug-23 00:31N 45°59' W 122°50'0 0.0
2016-Aug-22 23:31N 45°59' W 122°50'0 0.0
2016-Aug-22 22:31N 45°59' W 122°50'0 0.0
2016-Aug-22 21:31N 45°59' W 122°50'0 0.0
2016-Aug-22 20:31N 45°59' W 122°50'0 0.0
2016-Aug-22 19:28N 45°59' W 122°50'0 0.0
2016-Aug-22 18:31N 45°59' W 122°50'0 0.0
2016-Aug-22 17:28N 45°59' W 122°50'0 0.0
2016-Aug-22 16:31N 45°59' W 122°50'0 0.0
2016-Aug-22 15:31N 45°59' W 122°50'0 0.0
2016-Aug-22 14:31N 45°59' W 122°50'0 0.0
2016-Aug-22 13:31N 45°59' W 122°50'0 0.0
2016-Aug-22 12:31N 45°59' W 122°50'0 0.0
2016-Aug-22 11:31N 45°59' W 122°50'0 0.0
2016-Aug-22 10:31N 45°59' W 122°50'0 0.0
2016-Aug-22 09:31N 45°59' W 122°50'0 0.0
2016-Aug-22 08:31N 45°59' W 122°50'0 0.0
2016-Aug-22 07:31N 45°59' W 122°50'0 0.0
2016-Aug-22 06:25N 45°59' W 122°50'0 0.0
2016-Aug-22 05:31N 45°59' W 122°50'0 0.0
2016-Aug-22 04:31N 45°59' W 122°50'0 0.0
2016-Aug-22 03:31N 45°59' W 122°50'0 0.0
2016-Aug-22 02:31N 45°59' W 122°50'0 0.0
2016-Aug-22 01:31N 45°59' W 122°50'0 0.0
2016-Aug-22 00:31N 45°59' W 122°50'0 0.0
2016-Aug-21 23:31N 45°59' W 122°50'0 0.0
2016-Aug-21 22:33N 45°59' W 122°50'2 1.8
2016-Aug-21 21:27N 46°01' W 122°51'0 0.0
2016-Aug-21 20:33N 46°01' W 122°51'0 0.0
2016-Aug-21 19:30N 46°01' W 122°52'0 0.0
2016-Aug-21 18:33N 46°01' W 122°52'0 0.0
2016-Aug-21 17:30N 46°01' W 122°52'0 0.0
2016-Aug-21 16:33N 46°01' W 122°52'0 0.2
2016-Aug-21 15:33N 46°01' W 122°51'0 0.0
2016-Aug-21 14:33N 46°01' W 122°51'0 0.1
2016-Aug-21 13:33N 46°01' W 122°51'0 0.0
2016-Aug-21 12:33N 46°01' W 122°51'0 0.1
2016-Aug-21 11:30N 46°01' W 122°52'0 0.1
2016-Aug-21 10:33N 46°01' W 122°52'0 0.0
2016-Aug-21 09:33N 46°01' W 122°51'0 0.0
2016-Aug-21 08:33N 46°01' W 122°51'0 0.0
2016-Aug-21 07:30N 46°01' W 122°52'0 0.0
2016-Aug-21 06:33N 46°01' W 122°52'0 0.0
2016-Aug-21 05:30N 46°01' W 122°52'0 0.0
2016-Aug-21 04:30N 46°01' W 122°52'0 0.1
2016-Aug-21 03:33N 46°01' W 122°52'0 0.1
2016-Aug-21 02:33N 46°01' W 122°51'0 0.0
2016-Aug-21 01:33N 46°01' W 122°51'0 0.0
2016-Aug-21 00:30N 46°01' W 122°51'0 0.0
2016-Aug-20 23:33N 46°01' W 122°51'0 0.2
2016-Aug-20 22:33N 46°01' W 122°52'0 0.0
2016-Aug-20 21:33N 46°01' W 122°52'0 0.0
2016-Aug-20 20:33N 46°01' W 122°52'0 0.0
2016-Aug-20 19:33N 46°01' W 122°52'0 0.0
2016-Aug-20 18:27N 46°01' W 122°52'0 0.0
2016-Aug-20 17:30N 46°01' W 122°52'0 0.0
2016-Aug-20 16:30N 46°01' W 122°52'0 0.0
2016-Aug-20 15:33N 46°01' W 122°52'0 0.1
2016-Aug-20 14:33N 46°01' W 122°51'0 0.1
2016-Aug-20 13:33N 46°01' W 122°51'0 0.0
2016-Aug-20 12:30N 46°01' W 122°51'0 0.0
2016-Aug-20 11:33N 46°01' W 122°51'0 0.1
2016-Aug-20 10:33N 46°01' W 122°51'0 0.1
2016-Aug-20 09:30N 46°01' W 122°51'0 0.0
2016-Aug-20 08:33N 46°01' W 122°52'0 0.0
2016-Aug-20 07:33N 46°01' W 122°52'0 0.0
2016-Aug-20 06:33N 46°01' W 122°52'0 0.0
2016-Aug-20 05:33N 46°01' W 122°51'0 0.0
2016-Aug-20 04:30N 46°01' W 122°52'0 0.0
2016-Aug-20 03:33N 46°01' W 122°52'0 0.2
2016-Aug-20 02:33N 46°01' W 122°51'0 0.0
2016-Aug-20 01:33N 46°01' W 122°51'0 0.0
2016-Aug-20 00:33N 46°01' W 122°51'0 0.0
2016-Aug-19 23:33N 46°01' W 122°51'0 0.2
2016-Aug-19 22:33N 46°01' W 122°51'0 0.0
2016-Aug-19 21:33N 46°01' W 122°51'0 0.0
2016-Aug-19 20:33N 46°01' W 122°52'0 0.0
2016-Aug-19 19:33N 46°01' W 122°52'0 0.0
2016-Aug-19 18:33N 46°01' W 122°52'0 0.0
2016-Aug-19 17:33N 46°01' W 122°52'0 0.0
2016-Aug-19 16:33N 46°01' W 122°51'0 0.0
2016-Aug-19 15:33N 46°01' W 122°52'0 0.0
2016-Aug-19 14:33N 46°01' W 122°51'0 0.2
2016-Aug-19 13:33N 46°01' W 122°51'0 0.0
2016-Aug-19 12:30N 46°01' W 122°51'0 0.0
2016-Aug-19 11:33N 46°01' W 122°51'0 0.0
2016-Aug-19 10:33N 46°01' W 122°51'0 0.0
2016-Aug-19 09:33N 46°01' W 122°51'0 0.2
2016-Aug-19 08:33N 46°01' W 122°52'0 0.1
2016-Aug-19 07:33N 46°01' W 122°51'0 0.0
2016-Aug-19 06:33N 46°01' W 122°51'0 0.0
2016-Aug-19 05:33N 46°01' W 122°52'0 0.0
2016-Aug-19 04:33N 46°01' W 122°52'0 0.0
2016-Aug-19 03:33N 46°01' W 122°52'0 0.1
2016-Aug-19 02:33N 46°01' W 122°52'0 0.1
2016-Aug-19 01:33N 46°01' W 122°51'0 0.0
2016-Aug-19 00:33N 46°01' W 122°51'0 0.0
2016-Aug-18 23:33N 46°01' W 122°51'0 0.0
2016-Aug-18 22:33N 46°01' W 122°51'0 0.2
2016-Aug-18 21:30N 46°01' W 122°51'0 0.0
2016-Aug-18 20:33N 46°01' W 122°51'0 0.0
2016-Aug-18 19:33N 46°01' W 122°51'0 0.0
2016-Aug-18 18:33N 46°01' W 122°52'0 0.0
2016-Aug-18 17:24N 46°01' W 122°52'0 0.1
2016-Aug-18 16:33N 46°01' W 122°51'0 0.0
2016-Aug-18 15:27N 46°01' W 122°51'0 0.0
2016-Aug-18 14:33N 46°01' W 122°51'0 0.0
2016-Aug-18 13:33N 46°01' W 122°51'0 0.2
2016-Aug-18 12:33N 46°01' W 122°51'0 0.0
2016-Aug-18 11:33N 46°01' W 122°51'0 0.0
2016-Aug-18 10:33N 46°01' W 122°51'0 0.0
2016-Aug-18 09:30N 46°01' W 122°51'0 0.2
2016-Aug-18 08:33N 46°01' W 122°52'0 0.1
2016-Aug-18 07:33N 46°01' W 122°52'0 0.0
2016-Aug-18 06:33N 46°01' W 122°52'0 0.0
2016-Aug-18 05:33N 46°01' W 122°52'0 0.0
2016-Aug-18 04:33N 46°01' W 122°52'0 0.0
2016-Aug-18 03:30N 46°01' W 122°52'0 0.0
2016-Aug-18 02:33N 46°01' W 122°52'0 0.2
2016-Aug-18 01:33N 46°01' W 122°51'0 0.0
2016-Aug-18 00:33N 46°01' W 122°51'0 0.0
2016-Aug-17 23:33N 46°01' W 122°51'0 0.0
2016-Aug-17 22:33N 46°01' W 122°51'0 0.1
2016-Aug-17 21:33N 46°01' W 122°52'0 0.1
2016-Aug-17 20:30N 46°01' W 122°52'0 0.0
2016-Aug-17 19:33N 46°01' W 122°52'0 0.0
2016-Aug-17 18:33N 46°01' W 122°52'  

Dump ship's entire track history